• Join FlightAware (Why Join?)
  • Login
  • US Flag 
 
08:29AM EST


 

Airport Tracker/Info


-or-


 

Live Flight TrackerFlight Track Log ✈ SCX8700 ✈ 08-Mar-2014 ✈ KFAR - KSFB

Flight Track Log - Related Links

Times and Time Zones

All times are in EST time to prevent confusion due to time zone crossing. See the SCX8700 flight status page for this flight to view local times or setup timezone preferences in your user account.

Time Position Orientation Groundspeed Altitude Reporting Facility
EST Latitude Longitude Course Direction KTS MPH feet Rate Location/Type
07:17PM 46.8967 -96.8156 152° Southeast 150 173 2,500  Level Minneapolis Center
07:18PM 46.8467 -96.7769 152° Southeast 219 252 4,800 2,580 Climbing Minneapolis Center
07:19PM 46.7942 -96.6944 133° Southeast 281 323 7,800 2,880 Climbing Minneapolis Center
07:20PM 46.7297 -96.6011 135° Southeast 308 354 10,800 2,940 Climbing Minneapolis Center
07:21PM 46.6553 -96.4919 135° Southeast 359 413 13,900 2,820 Climbing Minneapolis Center
07:22PM 46.5753 -96.3753 135° Southeast 392 451 16,600 2,580 Climbing Minneapolis Center
07:23PM 46.4964 -96.2611 135° Southeast 405 466 19,200 2,460 Climbing Minneapolis Center
07:24PM 46.4119 -96.1400 135° Southeast 422 486 21,700 2,460 Climbing Minneapolis Center
07:25PM 46.3211 -96.0181 137° Southeast 441 507 24,300 2,340 Climbing Minneapolis Center
07:26PM 46.2161 -95.9139 146° Southeast 451 519 26,600 2,040 Climbing Minneapolis Center
07:27PM 46.0978 -95.7922 144° Southeast 470 541 28,600 1,860 Climbing Minneapolis Center
07:28PM 45.9881 -95.6753 143° Southeast 483 556 30,400 1,680 Climbing Minneapolis Center
07:29PM 45.8744 -95.5619 145° Southeast 490 564 32,100 1,680 Climbing Minneapolis Center
07:30PM 45.7608 -95.4478 145° Southeast 495 570 33,900 1,800 Climbing Minneapolis Center
07:31PM 45.6469 -95.3356 145° Southeast 495 570 35,900 1,260 Climbing Minneapolis Center
07:32PM 45.5339 -95.2250 146° Southeast 494 568 36,500 480 Climbing Minneapolis Center
07:33PM 45.4172 -95.1125 146° Southeast 502 578 37,000 240 Climbing Minneapolis Center
07:34PM 45.3014 -94.9994 146° Southeast 506 582 37,000  Level Minneapolis Center
07:35PM 45.1642 -94.8669 146° Southeast 500 575 37,000  Level Minneapolis Center
07:36PM 45.0503 -94.7575 146° Southeast 500 575 37,000  Level Minneapolis Center
07:37PM 44.9383 -94.6503 146° Southeast 492 566 37,000  Level Minneapolis Center
07:38PM 44.8378 -94.5539 146° Southeast 488 562 37,000  Level Minneapolis Center
07:39PM 44.7264 -94.4486 146° Southeast 487 560 37,000  Level Minneapolis Center
07:40PM 44.5944 -94.3236 146° Southeast 484 557 37,000 -300 Level Minneapolis Center
07:41PM 44.4844 -94.2203 146° Southeast 482 555 36,400 -840 Descending Minneapolis Center
07:42PM 44.3747 -94.1161 146° Southeast 480 552 35,400 -1,020 Descending Minneapolis Center
07:43PM 44.2633 -94.0150 147° Southeast 482 555 34,400 -960 Descending Minneapolis Center
07:44PM 44.1567 -93.9167 147° Southeast 469 540 33,500 -720 Descending Minneapolis Center
07:45PM 44.0494 -93.8178 146° Southeast 467 537 33,000 -300 Descending Minneapolis Center
07:46PM 43.9417 -93.7186 146° Southeast 467 537 33,000  Level Minneapolis Center
07:47PM 43.8339 -93.6214 147° Southeast 467 537 33,000  Level Minneapolis Center
07:48PM 43.7050 -93.5039 147° Southeast 467 537 33,000  Level Minneapolis Center
07:49PM 43.5972 -93.4072 147° Southeast 466 536 33,000  Level Minneapolis Center
07:50PM 43.4881 -93.3086 147° Southeast 466 536 33,000  Level Minneapolis Center
07:51PM 43.3803 -93.2114 147° Southeast 465 535 33,000  Level Minneapolis Center
07:52PM 43.2728 -93.1164 147° Southeast 465 535 33,000  Level Minneapolis Center
07:54PM 43.1661 -93.0192 146° Southeast 465 535 33,000  Level Minneapolis Center
07:55PM 43.0586 -92.9250 147° Southeast 465 535 33,000  Level Minneapolis Center
07:56PM 42.9514 -92.8303 147° Southeast 465 535 33,000  Level Minneapolis Center
07:56PM 42.8433 -92.7358 147° Southeast 463 533 33,000  Level Chicago Center
07:57PM 42.7361 -92.6431 148° Southeast 461 531 33,000  Level Chicago Center
07:59PM 42.6075 -92.5314 147° Southeast 461 531 33,100 960 Climbing Chicago Center
08:00PM 42.5008 -92.4356 146° Southeast 464 534 35,000 900 Climbing Chicago Center
08:01PM 42.3950 -92.3458 148° Southeast 457 526 35,000  Level Chicago Center
08:02PM 42.2903 -92.2558 148° Southeast 453 521 35,000  Level Chicago Center
08:03PM 42.1853 -92.1644 147° Southeast 454 522 35,000  Level Chicago Center
08:04PM 42.0808 -92.0753 148° Southeast 451 519 35,000  Level Chicago Center
08:05PM 41.9525 -91.9686 148° Southeast 455 524 35,000  Level Chicago Center
08:06PM 41.8458 -91.8783 148° Southeast 456 525 35,000  Level Chicago Center
08:07PM 41.7403 -91.7878 147° Southeast 456 525 35,000  Level Chicago Center
08:08PM 41.6336 -91.6975 148° Southeast 458 527 35,000  Level Chicago Center
08:09PM 41.5328 -91.5894 141° Southeast 466 536 35,000  Level Chicago Center
08:10PM 41.4314 -91.4836 142° Southeast 469 540 35,000  Level Chicago Center
08:11PM 41.3294 -91.3794 142° Southeast 467 537 35,000  Level Chicago Center
08:12PM 41.2081 -91.2514 142° Southeast 469 540 35,000  Level Chicago Center
08:13PM 41.1036 -91.1442 142° Southeast 473 544 35,000  Level Chicago Center
08:14PM 40.9997 -91.0381 142° Southeast 473 544 35,000  Level Chicago Center
08:15PM 40.8964 -90.9325 142° Southeast 471 542 35,000  Level Chicago Center
08:16PM 40.7939 -90.8269 142° Southeast 469 540 35,000  Level Chicago Center
08:17PM 40.6908 -90.7233 143° Southeast 469 540 35,000  Level Chicago Center
08:18PM 40.5883 -90.6194 142° Southeast 468 539 35,000  Level Chicago Center
08:19PM 40.4644 -90.4947 143° Southeast 469 540 35,000  Level Chicago Center
08:20PM 40.3625 -90.3917 142° Southeast 467 537 35,000  Level Chicago Center
08:21PM 40.2592 -90.2889 143° Southeast 469 540 35,000  Level Chicago Center
08:22PM 40.1561 -90.1861 143° Southeast 470 541 35,000  Level Chicago Center
08:23PM 40.0525 -90.0842 143° Southeast 469 540 35,000  Level Chicago Center
08:24PM 39.9703 -90.0019 143° Southeast 469 540 35,000  Level Kansas City Center
08:25PM 39.8464 -89.8803 143° Southeast 469 540 35,000  Level Kansas City Center
08:26PM 39.7444 -89.7783 142° Southeast 467 537 35,000  Level Kansas City Center
08:27PM 39.6500 -89.6864 143° Southeast 465 535 35,000  Level Kansas City Center
08:28PM 39.5467 -89.5883 144° Southeast 464 534 35,000  Level Kansas City Center
08:29PM 39.4439 -89.4886 143° Southeast 464 534 35,000  Level Kansas City Center
08:30PM 39.3214 -89.3689 143° Southeast 461 531 35,000  Level Kansas City Center
08:31PM 39.2178 -89.2700 144° Southeast 461 531 35,000  Level Kansas City Center
08:32PM 39.1131 -89.1706 144° Southeast 462 532 35,000  Level Kansas City Center
08:33PM 39.0092 -89.0706 143° Southeast 462 532 35,000  Level Kansas City Center
08:34PM 38.9039 -88.9706 144° Southeast 466 536 35,000  Level Kansas City Center
08:35PM 38.8014 -88.8717 143° Southeast 464 534 35,000  Level Kansas City Center
08:36PM 38.6953 -88.7714 144° Southeast 467 537 35,000  Level Kansas City Center
08:37PM 38.5711 -88.6594 145° Southeast 468 539 35,000  Level Kansas City Center
08:38PM 38.4728 -88.5664 143° Southeast 468 539 35,000  Level Kansas City Center
08:39PM 38.3672 -88.4694 144° Southeast 468 539 35,000  Level Kansas City Center
08:40PM 38.2625 -88.3711 144° Southeast 468 539 35,000  Level Kansas City Center
08:41PM 38.1583 -88.2756 144° Southeast 467 537 35,000  Level Kansas City Center
08:42PM 38.0367 -88.1622 144° Southeast 463 533 35,000 420 Level Indianapolis Center
08:43PM 37.9286 -88.0633 144° Southeast 469 540 36,000 960 Climbing Indianapolis Center
08:45PM 37.8197 -87.9625 144° Southeast 482 555 37,000 480 Climbing Indianapolis Center
08:46PM 37.7028 -87.8553 144° Southeast 483 556 37,000  Level Indianapolis Center
08:47PM 37.5928 -87.7556 144° Southeast 483 556 37,000  Level Indianapolis Center
08:48PM 37.4831 -87.6572 145° Southeast 483 556 37,000  Level Indianapolis Center
08:49PM 37.3736 -87.5589 144° Southeast 482 555 37,000  Level Indianapolis Center
08:50PM 37.2631 -87.4600 145° Southeast 482 555 37,000  Level Indianapolis Center
08:51PM 37.1536 -87.3617 144° Southeast 482 555 37,000  Level Indianapolis Center
08:51PM 37.0806 -87.2967 145° Southeast 482 555 37,000  Level Memphis Center
08:52PM 36.9722 -87.2011 145° Southeast 476 548 37,000  Level Memphis Center
08:53PM 36.8489 -87.0908 144° Southeast 466 536 37,000  Level Memphis Center
08:54PM 36.7428 -86.9981 145° Southeast 465 535 37,000  Level Memphis Center
08:55PM 36.6372 -86.9044 145° Southeast 463 533 37,000  Level Memphis Center
08:56PM 36.5308 -86.8111 145° Southeast 462 532 37,000  Level Memphis Center
08:58PM 36.4236 -86.7164 145° Southeast 462 532 37,000  Level Memphis Center
08:59PM 36.3333 -86.6389 145° Southeast 462 532 37,000  Level Memphis Center
09:00PM 36.2267 -86.5483 146° Southeast 461 531 37,000  Level Memphis Center
09:01PM 36.1211 -86.4567 145° Southeast 461 531 37,000  Level Memphis Center
09:02PM 36.0139 -86.3642 145° Southeast 461 531 37,000  Level Memphis Center
09:03PM 35.9067 -86.2725 145° Southeast 461 531 37,000  Level Memphis Center
09:04PM 35.7814 -86.1650 145° Southeast 462 532 37,000  Level Memphis Center
09:05PM 35.6742 -86.0744 146° Southeast 462 532 37,000  Level Memphis Center
09:06PM 35.5794 -85.9947 146° Southeast 462 532 37,000  Level Memphis Center
09:07PM 35.4736 -85.9042 145° Southeast 463 533 37,000  Level Memphis Center
09:08PM 35.3633 -85.8139 146° Southeast 465 535 37,000  Level Atlanta Center
09:09PM 35.2583 -85.7225 145° Southeast 465 535 37,000  Level Atlanta Center
09:10PM 35.1531 -85.6342 146° Southeast 465 535 37,000  Level Atlanta Center
09:11PM 35.0456 -85.5458 146° Southeast 465 535 37,000  Level Atlanta Center
09:12PM 34.9403 -85.4578 146° Southeast 465 535 37,000  Level Atlanta Center
09:13PM 34.8328 -85.3697 146° Southeast 465 535 37,000  Level Atlanta Center
09:14PM 34.7272 -85.2797 145° Southeast 460 529 37,000  Level Atlanta Center
09:15PM 34.6194 -85.1947 147° Southeast 460 529 37,000  Level Atlanta Center
09:16PM 34.5181 -85.1028 143° Southeast 460 529 37,000  Level Atlanta Center
09:17PM 34.4103 -85.0183 147° Southeast 460 529 37,000  Level Atlanta Center
09:18PM 34.3025 -84.9289 146° Southeast 460 529 37,000  Level Atlanta Center
09:19PM 34.1861 -84.8372 147° Southeast 460 529 37,000  Level Atlanta Center
09:20PM 34.0886 -84.7586 146° Southeast 466 536 37,000  Level Atlanta Center
09:21PM 33.9825 -84.6725 146° Southeast 466 536 37,000  Level Atlanta Center
09:22PM 33.8744 -84.5892 147° Southeast 461 531 37,000  Level Atlanta Center
09:23PM 33.7558 -84.4911 145° Southeast 461 531 37,000  Level Atlanta Center
09:24PM 33.6539 -84.4106 147° Southeast 466 536 37,000  Level Atlanta Center
09:25PM 33.5475 -84.3256 146° Southeast 466 536 37,000  Level Atlanta Center
09:26PM 33.4289 -84.2306 146° Southeast 472 543 37,000  Level Atlanta Center
09:27PM 33.3183 -84.1456 147° Southeast 467 537 37,000  Level Atlanta Center
09:28PM 33.2139 -84.0611 146° Southeast 467 537 37,000  Level Atlanta Center
09:29PM 33.1033 -83.9744 147° Southeast 461 531 37,000  Level Atlanta Center
09:30PM 33.0008 -83.8878 145° Southeast 461 531 37,000  Level Atlanta Center
09:31PM 32.8922 -83.8039 147° Southeast 461 531 37,000 -300 Level Atlanta Center
09:32PM 32.7836 -83.7175 146° Southeast 466 536 36,400 -540 Descending Atlanta Center
09:33PM 32.6769 -83.6342 147° Southeast 466 536 36,000 -240 Descending Atlanta Center
09:34PM 32.5931 -83.5678 146° Southeast 461 531 36,000  Level Atlanta Center
09:36PM 32.3514 -83.3794 147° Southeast 473 544 36,000  Level Jacksonville Center
09:37PM 32.2431 -83.2953 147° Southeast 466 536 36,000  Level Jacksonville Center
09:38PM 32.1347 -83.2117 147° Southeast 466 536 36,000  Level Jacksonville Center
09:39PM 32.0264 -83.1278 147° Southeast 466 536 36,000  Level Jacksonville Center
09:40PM 31.9158 -83.0444 147° Southeast 466 536 36,000  Level Jacksonville Center
09:41PM 31.7969 -82.9561 148° Southeast 466 536 36,000  Level Jacksonville Center
09:42PM 31.6906 -82.8731 146° Southeast 466 536 36,000  Level Jacksonville Center
09:43PM 31.5819 -82.7903 147° Southeast 466 536 36,000  Level Jacksonville Center
09:44PM 31.4836 -82.6878 138° Southeast 466 536 36,000 -360 Level Jacksonville Center
09:45PM 31.3833 -82.5836 138° Southeast 476 548 35,300 -840 Descending Jacksonville Center
09:46PM 31.2953 -82.4939 139° Southeast 476 548 34,400 -960 Descending Jacksonville Center
09:47PM 31.1947 -82.3922 139° Southeast 476 548 33,400 -1,020 Descending Jacksonville Center
09:48PM 31.0981 -82.2908 138° Southeast 476 548 32,400 -1,080 Descending Jacksonville Center
09:49PM 31.0017 -82.1922 139° Southeast 471 542 31,300 -2,100 Descending Jacksonville Center
09:50PM 30.9072 -82.0961 139° Southeast 466 536 28,200 -2,640 Descending Jacksonville Center
09:51PM 30.8147 -81.9975 138° Southeast 460 529 26,100 -2,100 Descending Jacksonville Center
09:52PM 30.7261 -81.9067 139° Southeast 450 518 24,100 -1,140 Descending Jacksonville Center
09:53PM 30.6378 -81.8158 138° Southeast 432 497 23,900 -60 Descending Jacksonville Center
09:54PM 30.5536 -81.7275 138° Southeast 421 484 24,000  Climbing Jacksonville Center
09:55PM 30.4650 -81.6417 140° Southeast 421 484 24,000  Level Jacksonville Center
09:56PM 30.3783 -81.5514 138° Southeast 415 478 24,000  Level Jacksonville Center
09:57PM 30.2817 -81.4903 151° Southeast 409 471 24,000 -300 Level Jacksonville Center
09:58PM 30.1769 -81.4486 161° South 394 453 23,500 -780 Descending Jacksonville Center
09:59PM 30.0764 -81.4117 162° South 389 448 22,500 -1,020 Descending Jacksonville Center
10:00PM 29.9756 -81.3725 161° South 389 448 21,500 -1,140 Descending Jacksonville Center
10:01PM 29.8769 -81.3356 162° South 384 442 20,300 -1,500 Descending Jacksonville Center
10:02PM 29.7828 -81.2989 161° South 379 436 18,500 -2,100 Descending Jacksonville Center
10:03PM 29.7050 -81.2689 161° South 357 411 16,600 -2,640 Descending Jacksonville Center
10:03PM 29.6883 -81.2644 167° South 368 423 15,900 -2,880 Descending Jacksonville Center
10:04PM 29.6022 -81.2325 162° South 363 418 13,700 -2,640 Descending Jacksonville Center
10:04PM 29.5917 -81.2256 150° Southeast 368 423 13,300 -2,340 Descending Jacksonville Center
10:05PM 29.5078 -81.1936 162° South 365 420 11,400 -2,040 Descending Jacksonville Center
10:05PM 29.4972 -81.1889 159° South 368 423 11,300 -1,020 Descending Jacksonville Center
10:06PM 29.4197 -81.1594 162° South 324 373 10,400 -1,140 Descending Jacksonville Center
10:06PM 29.4111 -81.1522 144° Southeast 353 406 10,200 -1,320 Descending Jacksonville Center
10:07PM 29.3358 -81.1297 165° South 309 356 9,100 -1,320 Descending Jacksonville Center
10:07PM 29.3275 -81.1253 155° Southeast 332 382 8,900 -1,320 Descending Jacksonville Center
10:08PM 29.2564 -81.1217 177° South 285 328 7,800 -1,320 Descending Jacksonville Center
10:08PM 29.2481 -81.1194 167° South 309 356 7,600 -1,320 Descending Jacksonville Center
10:09PM 29.1753 -81.1397 194° South 287 330 6,300 -1,320 Descending Jacksonville Center
10:10PM 29.1003 -81.1578 192° South 282 325 5,000 -720 Descending Jacksonville Center
10:11PM 29.0294 -81.1708 189° South 276 318 4,900 -420 Descending Jacksonville Center
10:12PM 28.9000 -81.2000 191° South 258 297 4,000 -660 Descending Orlando TRACON
10:13PM 28.8500 -81.2500 221° Southwest 234 269 3,200 -900 Descending Orlando TRACON
10:14PM 28.8333 -81.3000 249° West 199 229 2,300 -720 Descending Orlando TRACON
10:15PM 28.8000 -81.3333 221° Southwest 170 196 1,800 -660 Descending Orlando TRACON
10:16PM 28.7833 -81.3000 120° Southeast 154 177 1,000 -840 Descending Orlando TRACON
10:18PM 28.7667 -81.2333 199° South  Level FlightAware Approximate
10:25PM 28.7770 -81.2349 199° South  Level Estimated
10:26PM 28.7770 -81.2349 199° South  Level Estimated
10:27PM 28.7770 -81.2349 199° South  Level Estimated
10:28PM 28.7770 -81.2349 199° South  Level Estimated